createdAt,value
2018-12-10T00:02:02.493Z,98076.00
2018-12-10T00:04:35.060Z,98073.84
2018-12-10T00:07:06.667Z,98083.52
2018-12-10T00:09:36.895Z,98082.43
2018-12-10T00:12:06.390Z,98073.59
2018-12-10T00:14:36.236Z,98083.52
2018-12-10T00:17:06.650Z,98087.82
2018-12-10T00:19:36.012Z,98090.53
2018-12-10T00:22:05.758Z,98090.77
2018-12-10T00:24:36.031Z,98093.21
2018-12-10T00:27:06.397Z,98104.20
2018-12-10T00:29:35.565Z,98092.94
2018-12-10T00:32:06.788Z,98096.68
2018-12-10T00:34:36.091Z,98095.37
2018-12-10T00:37:06.490Z,98094.02
2018-12-10T00:39:36.410Z,98096.95
2018-12-10T00:42:05.794Z,98102.59
2018-12-10T00:44:35.493Z,98116.84
2018-12-10T00:47:04.860Z,98114.69
2018-12-10T00:49:34.173Z,98109.84
2018-12-10T00:52:03.686Z,98118.70
2018-12-10T00:54:33.790Z,98127.02
2018-12-10T00:57:03.691Z,98127.02
2018-12-10T00:59:33.995Z,98132.41
2018-12-10T01:02:05.141Z,98131.05
2018-12-10T01:04:35.267Z,98135.58
2018-12-10T01:07:05.115Z,98145.24
2018-12-10T01:09:34.801Z,98154.34
2018-12-10T01:12:04.257Z,98157.56
2018-12-10T01:14:34.593Z,98155.94
2018-12-10T01:17:04.040Z,98153.23
2018-12-10T01:19:33.381Z,98161.26
2018-12-10T01:22:02.958Z,98167.41
2018-12-10T01:24:32.320Z,98164.16
2018-12-10T01:27:02.466Z,98175.97
2018-12-10T01:29:32.427Z,98180.23
2018-12-10T01:32:01.948Z,98196.59
2018-12-10T01:34:32.028Z,98190.16
2018-12-10T01:37:02.161Z,98194.50
2018-12-10T01:39:31.543Z,98208.18
2018-12-10T01:42:01.722Z,98207.91
2018-12-10T01:44:31.828Z,98210.87
2018-12-10T01:47:01.912Z,98212.77
2018-12-10T01:49:31.211Z,98214.92
2018-12-10T01:52:00.412Z,98211.98
2018-12-10T01:54:30.608Z,98216.52
2018-12-10T01:56:59.821Z,98221.60
2018-12-10T01:59:29.002Z,98219.48
2018-12-10T02:01:58.523Z,98226.98
2018-12-10T02:04:28.441Z,98229.38
2018-12-10T02:06:57.738Z,98230.98
2018-12-10T02:09:27.557Z,98233.91
2018-12-10T02:11:57.097Z,98230.96
2018-12-10T02:14:26.370Z,98230.95
2018-12-10T02:16:55.648Z,98236.33
2018-12-10T02:19:25.278Z,98236.87
2018-12-10T02:21:54.915Z,98243.54
2018-12-10T02:24:24.218Z,98246.77
2018-12-10T02:26:53.461Z,98251.05
2018-12-10T02:29:23.483Z,98255.61
2018-12-10T02:31:53.922Z,98256.41
2018-12-10T02:34:24.100Z,98259.41
2018-12-10T02:36:53.992Z,98257.51
2018-12-10T02:39:23.959Z,98254.84
2018-12-10T02:41:53.488Z,98259.91
2018-12-10T02:44:22.974Z,98263.63
2018-12-10T02:46:52.550Z,98265.75
2018-12-10T02:49:22.145Z,98266.76
2018-12-10T02:51:52.334Z,98272.66
2018-12-10T02:54:21.677Z,98273.50
2018-12-10T02:56:51.077Z,98274.86
2018-12-10T02:59:20.792Z,98280.48
2018-12-10T03:01:50.143Z,98287.20
2018-12-10T03:04:21.423Z,98291.51
2018-12-10T03:06:50.859Z,98285.89
2018-12-10T03:09:20.232Z,98295.02
2018-12-10T03:11:49.565Z,98298.22
2018-12-10T03:14:19.124Z,98297.98
2018-12-10T03:16:49.764Z,98299.31
2018-12-10T03:19:19.614Z,98293.69
2018-12-10T03:21:49.925Z,98303.35
2018-12-10T03:24:19.090Z,98305.23
2018-12-10T03:26:49.406Z,98313.84
2018-12-10T03:29:18.846Z,98305.52
2018-12-10T03:31:48.278Z,98310.60
2018-12-10T03:34:17.872Z,98311.16
2018-12-10T03:36:48.139Z,98313.55
2018-12-10T03:39:17.520Z,98312.48
2018-12-10T03:41:47.448Z,98321.63
2018-12-10T03:44:16.762Z,98318.97
2018-12-10T03:46:47.298Z,98310.36
2018-12-10T03:49:17.359Z,98324.01
2018-12-10T03:51:46.703Z,98325.08
2018-12-10T03:54:16.158Z,98321.84
2018-12-10T03:56:46.105Z,98332.30
2018-12-10T03:59:15.587Z,98330.44
2018-12-10T04:01:44.898Z,98319.19
2018-12-10T04:04:14.403Z,98323.73
2018-12-10T04:06:43.809Z,98333.08
2018-12-10T04:09:13.100Z,98334.70
2018-12-10T04:11:44.061Z,98337.14
2018-12-10T04:14:13.398Z,98336.59
2018-12-10T04:16:43.559Z,98336.57
2018-12-10T04:19:12.774Z,98332.84
2018-12-10T04:21:42.039Z,98341.12
2018-12-10T04:24:11.273Z,98343.01
2018-12-10T04:26:40.663Z,98345.14
2018-12-10T04:29:10.090Z,98348.38
2018-12-10T04:31:39.715Z,98352.94
2018-12-10T04:34:09.953Z,98349.20
2018-12-10T04:36:39.486Z,98354.29
2018-12-10T04:39:09.357Z,98352.94
2018-12-10T04:41:38.784Z,98355.93
2018-12-10T04:44:08.634Z,98354.56
2018-12-10T04:46:38.193Z,98364.77
2018-12-10T04:49:07.615Z,98366.80
2018-12-10T04:51:37.203Z,98363.78
2018-12-10T04:54:06.711Z,98375.03
2018-12-10T04:56:36.116Z,98388.13
2018-12-10T04:59:05.683Z,98379.56
2018-12-10T05:01:35.375Z,98383.84
2018-12-10T05:04:04.925Z,98384.87
2018-12-10T05:06:34.420Z,98389.16
2018-12-10T05:09:06.216Z,98384.59
2018-12-10T05:11:36.774Z,98380.28
2018-12-10T05:14:06.268Z,98385.01
2018-12-10T05:16:36.202Z,98380.17
2018-12-10T05:19:06.421Z,98391.63
2018-12-10T05:21:35.934Z,98389.76
2018-12-10T05:24:05.400Z,98396.41
2018-12-10T05:26:36.385Z,98396.95
2018-12-10T05:29:05.820Z,98408.20
2018-12-10T05:31:35.944Z,98410.64
2018-12-10T05:34:05.323Z,98417.60
2018-12-10T05:36:35.466Z,98417.92
2018-12-10T05:39:06.414Z,98434.26
2018-12-10T05:41:36.771Z,98433.09
2018-12-10T05:44:06.480Z,98455.41
2018-12-10T05:46:37.014Z,98466.28
2018-12-10T05:49:06.539Z,98479.70
2018-12-10T05:51:35.928Z,98477.17
2018-12-10T05:54:05.618Z,98482.20
2018-12-10T05:56:35.058Z,98478.58
2018-12-10T05:59:04.630Z,98481.94
2018-12-10T06:01:35.139Z,98489.44
2018-12-10T06:04:04.714Z,98496.25
2018-12-10T06:06:34.440Z,98509.23
2018-12-10T06:09:05.380Z,98511.97
2018-12-10T06:11:34.625Z,98515.41
2018-12-10T06:14:04.238Z,98510.95
2018-12-10T06:16:34.444Z,98507.77
2018-12-10T06:19:03.959Z,98496.40
2018-12-10T06:21:33.794Z,98489.31
2018-12-10T06:24:03.299Z,98484.23
2018-12-10T06:26:33.201Z,98487.57
2018-12-10T06:29:03.483Z,98495.84
2018-12-10T06:31:32.770Z,98495.37
2018-12-10T06:34:02.955Z,98502.27
2018-12-10T06:36:33.091Z,98508.17
2018-12-10T06:39:02.421Z,98510.23
2018-12-10T06:41:33.550Z,98514.14
2018-12-10T06:44:03.713Z,98514.64
2018-12-10T06:46:33.035Z,98523.68
2018-12-10T06:49:03.278Z,98529.13
2018-12-10T06:51:32.862Z,98525.27
2018-12-10T06:54:02.428Z,98526.66
2018-12-10T06:56:31.699Z,98524.63
2018-12-10T06:59:01.088Z,98537.05
2018-12-10T07:01:31.159Z,98533.92
2018-12-10T07:04:01.391Z,98537.77
2018-12-10T07:06:31.595Z,98543.78
2018-12-10T07:09:00.820Z,98541.97
2018-12-10T07:11:31.878Z,98548.36
2018-12-10T07:14:01.225Z,98543.80
2018-12-10T07:16:30.510Z,98549.49
2018-12-10T07:18:59.947Z,98543.33
2018-12-10T07:21:29.913Z,98542.05
2018-12-10T07:23:59.281Z,98545.42
2018-12-10T07:26:29.173Z,98540.63
2018-12-10T07:28:58.523Z,98544.52
2018-12-10T07:31:27.843Z,98549.44
2018-12-10T07:33:57.509Z,98547.73
2018-12-10T07:36:27.115Z,98559.26
2018-12-10T07:38:57.460Z,98567.83
2018-12-10T07:41:27.001Z,98562.34
2018-12-10T07:43:56.686Z,98565.59
2018-12-10T07:46:26.945Z,98566.14
2018-12-10T07:48:57.155Z,98565.64
2018-12-10T07:51:26.444Z,98573.39
2018-12-10T07:53:56.525Z,98572.26
2018-12-10T07:56:29.095Z,98575.44
2018-12-10T07:58:58.756Z,98582.61
2018-12-10T08:01:28.120Z,98590.61
2018-12-10T08:03:57.578Z,98593.84
2018-12-10T08:06:27.108Z,98596.46
2018-12-10T08:08:56.745Z,98598.23
2018-12-10T08:11:26.075Z,98595.81
2018-12-10T08:13:55.324Z,98606.08
2018-12-10T08:16:25.544Z,98607.61
2018-12-10T08:18:55.493Z,98612.76
2018-12-10T08:21:25.688Z,98612.80
2018-12-10T08:23:55.064Z,98615.58
2018-12-10T08:26:25.223Z,98618.62
2018-12-10T08:29:03.839Z,98620.86
2018-12-10T08:31:27.824Z,98621.02
2018-12-10T08:33:57.233Z,98629.50
2018-12-10T08:36:26.653Z,98625.87
2018-12-10T08:38:56.233Z,98633.61
2018-12-10T08:41:26.385Z,98632.65
2018-12-10T08:43:56.590Z,98637.95
2018-12-10T08:46:25.984Z,98644.09
2018-12-10T08:48:55.406Z,98640.42
2018-12-10T08:51:25.153Z,98643.10
2018-12-10T08:53:54.616Z,98644.78
2018-12-10T08:56:24.159Z,98652.32
2018-12-10T08:58:53.499Z,98653.98
2018-12-10T09:01:23.050Z,98652.50
2018-12-10T09:03:52.448Z,98649.23
2018-12-10T09:06:22.124Z,98651.23
2018-12-10T09:08:51.799Z,98651.91
2018-12-10T09:11:21.052Z,98657.74
2018-12-10T09:13:50.329Z,98659.63
2018-12-10T09:16:19.778Z,98663.16
2018-12-10T09:18:49.158Z,98662.58
2018-12-10T09:21:18.681Z,98662.78
2018-12-10T09:23:48.018Z,98666.75
2018-12-10T09:26:18.227Z,98666.12
2018-12-10T09:28:48.413Z,98663.86
2018-12-10T09:31:17.895Z,98666.91
2018-12-10T09:33:47.907Z,98663.86
2018-12-10T09:36:17.210Z,98672.81
2018-12-10T09:38:46.478Z,98672.25
2018-12-10T09:41:16.094Z,98668.59
2018-12-10T09:43:46.692Z,98671.58
2018-12-10T09:46:16.189Z,98673.96
2018-12-10T09:48:45.675Z,98667.22
2018-12-10T09:51:15.362Z,98666.41
2018-12-10T09:53:45.559Z,98669.09
2018-12-10T09:56:14.898Z,98668.38
2018-12-10T09:58:44.118Z,98667.55
2018-12-10T10:01:14.126Z,98661.09
2018-12-10T10:03:43.705Z,98671.06
2018-12-10T10:06:13.525Z,98671.17
2018-12-10T10:08:42.829Z,98666.81
2018-12-10T10:11:12.285Z,98675.20
2018-12-10T10:13:41.564Z,98666.44
2018-12-10T10:16:11.112Z,98668.20
2018-12-10T10:18:40.659Z,98670.53
2018-12-10T10:21:11.390Z,98670.88
2018-12-10T10:23:40.991Z,98677.50
2018-12-10T10:26:10.314Z,98673.22
2018-12-10T10:28:39.716Z,98666.31
2018-12-10T10:31:09.265Z,98668.48
2018-12-10T10:33:39.163Z,98660.92
2018-12-10T10:36:09.258Z,98655.19
2018-12-10T10:38:38.685Z,98664.38
2018-12-10T10:41:08.749Z,98664.88
2018-12-10T10:43:39.186Z,98664.52
2018-12-10T10:46:08.597Z,98657.19
2018-12-10T10:48:38.202Z,98657.13
2018-12-10T10:51:07.569Z,98658.41
2018-12-10T10:53:36.984Z,98664.21
2018-12-10T10:56:06.760Z,98660.34
2018-12-10T10:58:36.279Z,98659.33
2018-12-10T11:01:11.049Z,98662.52
2018-12-10T11:03:41.415Z,98661.02
2018-12-10T11:06:11.638Z,98661.86
2018-12-10T11:08:41.037Z,98658.06
2018-12-10T11:11:10.328Z,98657.81
2018-12-10T11:13:40.260Z,98653.84
2018-12-10T11:16:10.959Z,98651.70
2018-12-10T11:18:40.520Z,98648.78
2018-12-10T11:21:10.655Z,98656.39
2018-12-10T11:23:40.184Z,98656.92
2018-12-10T11:26:09.635Z,98654.58
2018-12-10T11:28:38.919Z,98661.91
2018-12-10T11:31:09.556Z,98665.41
2018-12-10T11:33:38.898Z,98657.67
2018-12-10T11:36:08.422Z,98653.39
2018-12-10T11:38:37.909Z,98653.61
2018-12-10T11:41:08.229Z,98650.88
2018-12-10T11:43:37.739Z,98652.27
2018-12-10T11:46:07.197Z,98644.06
2018-12-10T11:48:36.775Z,98638.45
2018-12-10T11:51:07.754Z,98637.97
2018-12-10T11:53:37.021Z,98634.67
2018-12-10T11:56:06.949Z,98634.97
2018-12-10T11:58:36.939Z,98624.66
2018-12-10T12:01:06.436Z,98629.09
2018-12-10T12:03:36.466Z,98622.40
2018-12-10T12:06:08.630Z,98613.77
2018-12-10T12:08:38.031Z,98612.20
2018-12-10T12:11:07.875Z,98605.95
2018-12-10T12:13:37.306Z,98602.33
2018-12-10T12:16:08.355Z,98596.20
2018-12-10T12:18:38.539Z,98598.41
2018-12-10T12:21:08.771Z,98609.17
2018-12-10T12:23:38.106Z,98608.09
2018-12-10T12:26:07.904Z,98602.08
2018-12-10T12:28:37.391Z,98599.08
2018-12-10T12:31:07.568Z,98604.77
2018-12-10T12:33:36.839Z,98597.09
2018-12-10T12:36:06.177Z,98593.33
2018-12-10T12:38:35.886Z,98603.33
2018-12-10T12:41:05.635Z,98594.41
2018-12-10T12:43:35.131Z,98606.87
2018-12-10T12:46:04.811Z,98599.16
2018-12-10T12:48:34.070Z,98603.09
2018-12-10T12:51:04.315Z,98600.91
2018-12-10T12:53:34.444Z,98595.59
2018-12-10T12:56:04.795Z,98587.50
2018-12-10T12:58:34.835Z,98593.31
2018-12-10T13:01:04.135Z,98585.95
2018-12-10T13:03:33.611Z,98592.67
2018-12-10T13:06:06.958Z,98586.74
2018-12-10T13:08:35.618Z,98593.05
2018-12-10T13:11:05.065Z,98594.41
2018-12-10T13:13:34.558Z,98588.90
2018-12-10T13:16:04.076Z,98588.58
2018-12-10T13:18:33.484Z,98581.95
2018-12-10T13:21:03.041Z,98579.52
2018-12-10T13:23:32.539Z,98589.54
2018-12-10T13:26:02.183Z,98574.53
2018-12-10T13:28:32.293Z,98570.53
2018-12-10T13:31:01.751Z,98578.07
2018-12-10T13:33:31.650Z,98579.14
2018-12-10T13:36:01.137Z,98586.00
2018-12-10T13:38:30.715Z,98587.48
2018-12-10T13:41:01.276Z,98587.48
2018-12-10T13:43:31.532Z,98578.58
2018-12-10T13:46:01.798Z,98582.20
2018-12-10T13:48:31.307Z,98585.47
2018-12-10T13:55:50.422Z,98570.67
2018-12-10T13:58:20.076Z,98567.43
2018-12-10T14:00:51.029Z,98567.44
2018-12-10T14:03:22.052Z,98568.23
2018-12-10T14:05:51.591Z,98564.99
2018-12-10T14:08:20.949Z,98578.45
2018-12-10T14:10:50.511Z,98592.05
2018-12-10T14:13:20.239Z,98608.20
2018-12-10T14:15:50.550Z,98616.91
2018-12-10T14:18:19.832Z,98600.92
2018-12-10T14:20:49.470Z,98600.53
2018-12-10T14:23:19.059Z,98609.13
2018-12-10T14:25:48.389Z,98601.03
2018-12-10T14:28:17.826Z,98596.00
2018-12-10T14:30:47.929Z,98587.69
2018-12-10T14:33:17.545Z,98591.29
2018-12-10T14:35:47.204Z,98581.91
2018-12-10T14:38:16.636Z,98582.06
2018-12-10T14:40:46.555Z,98583.09
2018-12-10T14:43:16.735Z,98577.03
2018-12-10T14:45:46.095Z,98581.44
2018-12-10T14:48:15.338Z,98580.06
2018-12-10T14:50:45.067Z,98578.66
2018-12-10T14:53:14.796Z,98572.39
2018-12-10T14:55:44.913Z,98577.33
2018-12-10T14:58:14.182Z,98577.55
2018-12-10T15:00:43.793Z,98575.33
2018-12-10T15:03:13.476Z,98578.98
2018-12-10T15:05:43.746Z,98577.56
2018-12-10T15:08:13.862Z,98569.38
2018-12-10T15:10:43.967Z,98577.27
2018-12-10T15:13:14.230Z,98580.03
2018-12-10T15:15:43.622Z,98577.49
2018-12-10T15:18:13.291Z,98583.28
2018-12-10T15:20:42.821Z,98589.80
2018-12-10T15:23:13.156Z,98592.39
2018-12-10T15:25:42.675Z,98598.05
2018-12-10T15:28:12.435Z,98594.71
2018-12-10T15:30:42.806Z,98588.28
2018-12-10T15:33:12.927Z,98593.89
2018-12-10T15:35:42.363Z,98581.11
2018-12-10T15:38:12.294Z,98574.09
2018-12-10T15:40:41.668Z,98572.09
2018-12-10T15:43:11.202Z,98579.83
2018-12-10T15:45:40.577Z,98584.84
2018-12-10T15:48:10.172Z,98591.80
2018-12-10T15:50:39.708Z,98582.76
2018-12-10T15:53:09.182Z,98573.47
2018-12-10T15:55:38.848Z,98569.34
2018-12-10T15:58:08.322Z,98571.50
2018-12-10T16:00:38.436Z,98586.22
2018-12-10T16:03:08.431Z,98585.84
2018-12-10T16:05:38.727Z,98578.86
2018-12-10T16:08:08.147Z,98587.80
2018-12-10T16:10:37.926Z,98588.06
2018-12-10T16:13:07.278Z,98580.74
2018-12-10T16:15:37.237Z,98588.88
2018-12-10T16:18:06.802Z,98595.45
2018-12-10T16:20:36.321Z,98592.08
2018-12-10T16:23:05.741Z,98595.41
2018-12-10T16:25:35.355Z,98605.23
2018-12-10T16:28:05.418Z,98596.14
2018-12-10T16:30:35.145Z,98594.89
2018-12-10T16:33:04.625Z,98590.47
2018-12-10T16:35:34.416Z,98589.97
2018-12-10T16:38:04.341Z,98582.76
2018-12-10T16:40:34.929Z,98591.86
2018-12-10T16:43:04.363Z,98593.56
2018-12-10T16:45:33.844Z,98594.28
2018-12-10T16:48:03.363Z,98598.40
2018-12-10T16:50:32.807Z,98601.08
2018-12-10T16:53:02.703Z,98599.11
2018-12-10T16:55:32.824Z,98593.55
2018-12-10T16:58:02.257Z,98601.64
2018-12-10T17:00:33.249Z,98600.59
2018-12-10T17:03:04.035Z,98602.19
2018-12-10T17:05:33.664Z,98606.93
2018-12-10T17:08:03.085Z,98597.83
2018-12-10T17:10:33.007Z,98609.03
2018-12-10T17:13:02.498Z,98597.88
2018-12-10T17:15:33.509Z,98594.02
2018-12-10T17:18:03.647Z,98599.99
2018-12-10T17:20:33.004Z,98593.41
2018-12-10T17:23:02.665Z,98587.72
2018-12-10T17:25:33.162Z,98588.02
2018-12-10T17:28:02.793Z,98588.84
2018-12-10T17:30:32.455Z,98580.71
2018-12-10T17:33:02.133Z,98591.14
2018-12-10T17:35:32.240Z,98595.37
2018-12-10T17:38:02.394Z,98591.92
2018-12-10T17:40:33.009Z,98596.03
2018-12-10T17:43:02.754Z,98587.04
2018-12-10T17:45:32.143Z,98587.91
2018-12-10T17:48:02.202Z,98596.30
2018-12-10T17:50:32.435Z,98600.15
2018-12-10T17:53:02.800Z,98596.95
2018-12-10T17:55:32.585Z,98597.99
2018-12-10T17:58:02.173Z,98597.47
2018-12-10T18:00:32.233Z,98592.64
2018-12-10T18:03:01.747Z,98599.88
2018-12-10T18:05:31.548Z,98594.80
2018-12-10T18:08:01.043Z,98592.89
2018-12-10T18:10:30.514Z,98592.33
2018-12-10T18:13:01.233Z,98583.48
2018-12-10T18:15:31.019Z,98575.77
2018-12-10T18:18:00.613Z,98586.73
2018-12-10T18:20:30.830Z,98585.08
2018-12-10T18:23:01.108Z,98594.19
2018-12-10T18:25:30.729Z,98584.87
2018-12-10T18:28:01.619Z,98589.40
2018-12-10T18:30:31.920Z,98589.40
2018-12-10T18:33:02.923Z,98589.09
2018-12-10T18:35:32.363Z,98585.17
2018-12-10T18:38:02.454Z,98587.25
2018-12-10T18:40:32.290Z,98579.36
2018-12-10T18:43:01.943Z,98584.14
2018-12-10T18:45:31.806Z,98571.05
2018-12-10T18:48:01.531Z,98569.23
2018-12-10T18:50:31.371Z,98568.47
2018-12-10T18:53:01.568Z,98564.67
2018-12-10T18:55:31.154Z,98572.27
2018-12-10T18:58:00.865Z,98571.25
2018-12-10T19:00:31.193Z,98573.45
2018-12-10T19:03:01.329Z,98580.74
2018-12-10T19:05:30.759Z,98583.98
2018-12-10T19:08:00.563Z,98578.27
2018-12-10T19:10:30.081Z,98581.66
2018-12-10T19:13:00.829Z,98586.50
2018-12-10T19:15:31.413Z,98588.88
2018-12-10T19:18:01.387Z,98595.56
2018-12-10T19:20:31.800Z,98601.78
2018-12-10T19:23:01.894Z,98607.73
2018-12-10T19:25:31.233Z,98624.92
2018-12-10T19:28:02.258Z,98637.27
2018-12-10T19:30:31.821Z,98655.02
2018-12-10T19:33:02.870Z,98674.06
2018-12-10T19:35:32.484Z,98678.88
2018-12-10T19:38:02.109Z,98683.20
2018-12-10T19:40:32.209Z,98680.34
2018-12-10T19:43:02.448Z,98664.66
2018-12-10T19:45:31.986Z,98667.53
2018-12-10T19:48:01.873Z,98661.55
2018-12-10T19:50:31.364Z,98669.38
2018-12-10T19:53:02.450Z,98674.90
2018-12-10T19:55:32.414Z,98681.39
2018-12-10T19:58:02.875Z,98679.42
2018-12-10T20:00:33.090Z,98679.16
2018-12-10T20:03:05.172Z,98678.72
2018-12-10T20:05:51.796Z,98683.04
2018-12-10T20:08:22.030Z,98680.06
2018-12-10T20:10:51.779Z,98666.59
2018-12-10T20:13:21.338Z,98666.48
2018-12-10T20:15:51.658Z,98657.86
2018-12-10T20:18:21.184Z,98665.39
2018-12-10T20:20:50.999Z,98681.34
2018-12-10T20:23:20.339Z,98692.61
2018-12-10T20:25:51.306Z,98692.07
2018-12-10T20:28:21.834Z,98673.34
2018-12-10T20:30:52.028Z,98684.23
2018-12-10T20:33:21.955Z,98680.78
2018-12-10T20:35:52.213Z,98676.41
2018-12-10T20:38:23.046Z,98672.92
2018-12-10T20:40:54.143Z,98672.76
2018-12-10T20:43:23.823Z,98675.54
2018-12-10T20:45:54.223Z,98676.16
2018-12-10T20:48:26.183Z,98669.91
2018-12-10T20:50:56.701Z,98669.47
2018-12-10T20:53:26.647Z,98668.30
2018-12-10T20:55:56.663Z,98666.08
2018-12-10T20:58:26.929Z,98668.98
2018-12-10T21:00:57.073Z,98666.05
2018-12-10T21:03:26.843Z,98670.66
2018-12-10T21:06:01.701Z,98669.46
2018-12-10T21:08:31.675Z,98667.31
2018-12-10T21:11:02.026Z,98669.46
2018-12-10T21:13:31.655Z,98682.37
2018-12-10T21:16:01.288Z,98683.98
2018-12-10T21:18:31.946Z,98690.34
2018-12-10T21:21:01.537Z,98700.77
2018-12-10T21:23:31.815Z,98714.76
2018-12-10T21:26:02.011Z,98717.56
2018-12-10T21:28:32.588Z,98714.66
2018-12-10T21:31:02.212Z,98727.99
2018-12-10T21:33:32.290Z,98734.59
2018-12-10T21:36:01.800Z,98730.52
2018-12-10T21:38:31.378Z,98735.64
2018-12-10T21:41:01.373Z,98732.51
2018-12-10T21:43:31.062Z,98732.51
2018-12-10T21:46:00.753Z,98725.38
2018-12-10T21:48:30.945Z,98731.77
2018-12-10T21:51:00.456Z,98730.55
2018-12-10T21:53:29.923Z,98732.62
2018-12-10T21:55:59.520Z,98732.47
2018-12-10T21:58:29.853Z,98734.19
2018-12-10T22:00:59.865Z,98741.59
2018-12-10T22:03:30.065Z,98745.51
2018-12-10T22:05:59.616Z,98743.28
2018-12-10T22:08:30.466Z,98743.58
2018-12-10T22:10:59.820Z,98755.11
2018-12-10T22:13:29.623Z,98756.74
2018-12-10T22:15:59.110Z,98748.86
2018-12-10T22:18:29.454Z,98736.26
2018-12-10T22:20:58.894Z,98727.02
2018-12-10T22:23:28.855Z,98723.77
2018-12-10T22:25:58.123Z,98722.48
2018-12-10T22:28:28.780Z,98724.94
2018-12-10T22:30:58.414Z,98719.97
2018-12-10T22:33:27.750Z,98729.09
2018-12-10T22:35:57.436Z,98736.84
2018-12-10T22:38:27.033Z,98739.05
2018-12-10T22:40:56.560Z,98732.80
2018-12-10T22:43:26.018Z,98725.25
2018-12-10T22:45:55.638Z,98733.00
2018-12-10T22:48:25.051Z,98731.51
2018-12-10T22:50:55.075Z,98729.45
2018-12-10T22:53:24.499Z,98722.27
2018-12-10T22:55:54.099Z,98727.30
2018-12-10T22:58:23.711Z,98733.78
2018-12-10T23:00:53.104Z,98727.00
2018-12-10T23:03:24.080Z,98730.09
2018-12-10T23:05:53.477Z,98727.84
2018-12-10T23:08:23.695Z,98736.00
2018-12-10T23:10:53.364Z,98733.48
2018-12-10T23:13:22.864Z,98736.29
2018-12-10T23:15:52.114Z,98732.87
2018-12-10T23:18:23.393Z,98737.23
2018-12-10T23:20:52.746Z,98739.04
2018-12-10T23:23:22.709Z,98742.47
2018-12-10T23:25:52.851Z,98739.22
2018-12-10T23:28:22.220Z,98740.14
2018-12-10T23:30:51.569Z,98731.52
2018-12-10T23:33:20.988Z,98731.59
2018-12-10T23:35:50.483Z,98730.92
2018-12-10T23:38:19.995Z,98733.58
2018-12-10T23:40:50.176Z,98732.53
2018-12-10T23:43:24.608Z,98735.98
2018-12-10T23:45:55.516Z,98740.30
2018-12-10T23:48:24.894Z,98741.21
2018-12-10T23:50:54.819Z,98735.86
2018-12-10T23:53:24.219Z,98736.88
2018-12-10T23:55:53.580Z,98736.63
2018-12-10T23:58:23.511Z,98722.96
